createdAt,value
2016-10-01T00:00:29.159Z,14.55
2016-10-01T00:01:09.699Z,14.51
2016-10-01T00:01:50.243Z,14.47
2016-10-01T00:02:30.789Z,14.54
2016-10-01T00:03:11.332Z,14.51
2016-10-01T00:03:51.877Z,14.51
2016-10-01T00:04:32.424Z,14.45
2016-10-01T00:05:12.958Z,14.43
2016-10-01T00:05:53.502Z,14.43
2016-10-01T00:06:34.047Z,14.37
2016-10-01T00:07:14.592Z,14.46
2016-10-01T00:07:55.135Z,14.51
2016-10-01T00:08:35.676Z,14.37
2016-10-01T00:09:16.218Z,14.39
2016-10-01T00:09:56.762Z,14.43
2016-10-01T00:10:37.304Z,14.4
2016-10-01T00:11:17.849Z,14.4
2016-10-01T00:11:58.397Z,14.4
2016-10-01T00:12:38.940Z,14.35
2016-10-01T00:13:19.483Z,14.36
2016-10-01T00:14:00.032Z,14.42
2016-10-01T00:14:40.573Z,14.4
2016-10-01T00:15:21.129Z,14.39
2016-10-01T00:16:01.661Z,14.4
2016-10-01T00:16:42.198Z,14.46
2016-10-01T00:17:22.739Z,14.4
2016-10-01T00:18:03.281Z,14.33
2016-10-01T00:18:43.824Z,14.35
2016-10-01T00:19:24.370Z,14.39
2016-10-01T00:20:04.914Z,14.39
2016-10-01T00:20:45.463Z,14.32
2016-10-01T00:21:26.007Z,14.42
2016-10-01T00:22:06.553Z,14.36
2016-10-01T00:22:47.096Z,14.35
2016-10-01T00:23:27.644Z,14.33
2016-10-01T00:24:08.185Z,14.43
2016-10-01T00:24:48.725Z,14.33
2016-10-01T00:25:29.267Z,14.39
2016-10-01T00:26:09.801Z,14.33
2016-10-01T00:26:50.342Z,14.29
2016-10-01T00:27:30.885Z,14.39
2016-10-01T00:28:11.433Z,14.4
2016-10-01T00:28:51.976Z,14.43
2016-10-01T00:29:32.521Z,14.4
2016-10-01T00:30:13.058Z,14.39
2016-10-01T00:30:53.601Z,14.4
2016-10-01T00:31:34.145Z,14.36
2016-10-01T00:32:14.685Z,14.39
2016-10-01T00:32:55.231Z,14.32
2016-10-01T00:33:35.774Z,14.37
2016-10-01T00:34:16.314Z,14.35
2016-10-01T00:34:56.856Z,14.32
2016-10-01T00:35:37.397Z,14.21
2016-10-01T00:36:17.941Z,14.28
2016-10-01T00:36:58.487Z,14.22
2016-10-01T00:37:39.029Z,14.2
2016-10-01T00:38:19.577Z,14.21
2016-10-01T00:39:00.147Z,14.21
2016-10-01T00:39:40.668Z,14.24
2016-10-01T00:40:21.209Z,14.21
2016-10-01T00:41:01.756Z,14.24
2016-10-01T00:41:42.300Z,14.32
2016-10-01T00:42:22.843Z,14.24
2016-10-01T00:43:03.379Z,14.24
2016-10-01T00:43:43.924Z,14.2
2016-10-01T00:44:24.467Z,14.22
2016-10-01T00:45:05.008Z,14.25
2016-10-01T00:45:45.551Z,14.24
2016-10-01T00:46:26.091Z,14.22
2016-10-01T00:47:06.639Z,14.22
2016-10-01T00:47:47.176Z,14.25
2016-10-01T00:48:27.722Z,14.2
2016-10-01T00:49:08.265Z,14.24
2016-10-01T00:49:48.811Z,14.22
2016-10-01T00:50:29.351Z,14.18
2016-10-01T00:51:09.884Z,14.21
2016-10-01T00:51:50.416Z,14.14
2016-10-01T00:52:30.971Z,14.14
2016-10-01T00:53:11.502Z,14.04
2016-10-01T00:53:52.055Z,14.02
2016-10-01T00:54:32.596Z,14.02
2016-10-01T00:55:13.143Z,14.02
2016-10-01T00:55:53.684Z,14.02
2016-10-01T00:56:34.227Z,14.02
2016-10-01T00:57:14.763Z,14.03
2016-10-01T00:57:55.289Z,13.99
2016-10-01T00:58:35.831Z,14.02
2016-10-01T00:59:16.365Z,13.96
2016-10-01T00:59:56.903Z,13.97
2016-10-01T01:00:37.451Z,14.02
2016-10-01T01:01:17.996Z,14.02
2016-10-01T01:01:58.537Z,14.02
2016-10-01T01:02:39.082Z,13.96
2016-10-01T01:03:19.626Z,14.02
2016-10-01T01:04:00.173Z,13.97
2016-10-01T01:04:40.705Z,13.97
2016-10-01T01:05:21.229Z,13.96
2016-10-01T01:06:01.770Z,13.96
2016-10-01T01:06:42.314Z,13.97
2016-10-01T01:07:22.858Z,13.91
2016-10-01T01:08:03.401Z,13.92
2016-10-01T01:08:43.942Z,13.88
2016-10-01T01:09:24.486Z,13.95
2016-10-01T01:10:05.031Z,13.95
2016-10-01T01:10:45.573Z,13.91
2016-10-01T01:11:26.112Z,13.84
2016-10-01T01:12:06.636Z,13.82
2016-10-01T01:12:47.186Z,13.87
2016-10-01T01:13:27.722Z,13.82
2016-10-01T01:14:08.263Z,13.88
2016-10-01T01:14:48.812Z,13.84
2016-10-01T01:15:29.352Z,13.92
2016-10-01T01:16:09.895Z,13.96
2016-10-01T01:16:50.428Z,13.95
2016-10-01T01:17:30.957Z,13.87
2016-10-01T01:18:11.499Z,13.96
2016-10-01T01:18:52.034Z,13.82
2016-10-01T01:19:32.576Z,13.87
2016-10-01T01:20:13.120Z,13.85
2016-10-01T01:20:53.657Z,13.88
2016-10-01T01:21:34.198Z,13.87
2016-10-01T01:22:14.731Z,13.82
2016-10-01T01:22:55.273Z,13.82
2016-10-01T01:23:35.810Z,13.88
2016-10-01T01:24:16.338Z,13.82
2016-10-01T01:24:56.878Z,13.84
2016-10-01T01:25:37.419Z,13.84
2016-10-01T01:26:17.955Z,13.77
2016-10-01T01:26:58.471Z,13.82
2016-10-01T01:27:38.980Z,13.87
2016-10-01T01:28:19.527Z,13.79
2016-10-01T01:29:00.064Z,13.84
2016-10-01T01:29:40.597Z,13.87
2016-10-01T01:30:21.121Z,13.85
2016-10-01T01:31:01.645Z,13.88
2016-10-01T01:31:42.180Z,13.82
2016-10-01T01:32:22.712Z,13.87
2016-10-01T01:33:03.243Z,13.82
2016-10-01T01:33:43.783Z,13.82
2016-10-01T01:34:24.318Z,13.89
2016-10-01T01:35:04.861Z,13.85
2016-10-01T01:35:45.403Z,13.92
2016-10-01T01:36:25.945Z,14
2016-10-01T01:37:06.484Z,13.95
2016-10-01T01:37:47.013Z,13.95
2016-10-01T01:38:27.551Z,14
2016-10-01T01:39:08.082Z,14.04
2016-10-01T01:39:48.610Z,14.02
2016-10-01T01:40:29.154Z,13.99
2016-10-01T01:41:09.687Z,14.03
2016-10-01T01:41:50.230Z,14
2016-10-01T01:42:30.784Z,14.02
2016-10-01T01:43:11.303Z,14.03
2016-10-01T01:43:51.841Z,14.09
2016-10-01T01:44:32.364Z,14.1
2016-10-01T01:45:12.891Z,14.04
2016-10-01T01:45:53.426Z,14.02
2016-10-01T01:46:33.950Z,14.04
2016-10-01T01:47:14.465Z,14.07
2016-10-01T01:47:55.015Z,14.06
2016-10-01T01:48:35.531Z,14.04
2016-10-01T01:49:16.070Z,14.17
2016-10-01T01:49:56.614Z,14.14
2016-10-01T01:50:37.149Z,14.09
2016-10-01T01:51:17.678Z,14.17
2016-10-01T01:51:58.216Z,14.17
2016-10-01T01:52:38.757Z,14.17
2016-10-01T01:53:19.282Z,14.15
2016-10-01T01:53:59.841Z,14.17
2016-10-01T01:54:40.368Z,14.18
2016-10-01T01:55:20.926Z,14.27
2016-10-01T01:56:01.448Z,14.21
2016-10-01T01:56:41.978Z,14.25
2016-10-01T01:57:22.495Z,14.21
2016-10-01T01:58:03.022Z,14.18
2016-10-01T01:58:43.558Z,14.17
2016-10-01T01:59:24.089Z,14.18
2016-10-01T02:00:04.627Z,14.22
2016-10-01T02:00:45.129Z,14.21
2016-10-01T02:01:25.685Z,14.18
2016-10-01T02:02:06.210Z,14.2
2016-10-01T02:02:46.739Z,14.15
2016-10-01T02:03:27.250Z,14.17
2016-10-01T02:04:07.796Z,14.14
2016-10-01T02:04:48.370Z,14.12
2016-10-01T02:05:28.923Z,14.06
2016-10-01T02:06:09.468Z,14.04
2016-10-01T02:06:50.001Z,14.07
2016-10-01T02:07:30.524Z,14.04
2016-10-01T02:08:11.050Z,14.02
2016-10-01T02:08:51.587Z,14
2016-10-01T02:09:32.118Z,14
2016-10-01T02:10:12.651Z,14.03
2016-10-01T02:10:53.199Z,14.03
2016-10-01T02:11:33.727Z,14.04
2016-10-01T02:12:14.254Z,14
2016-10-01T02:12:54.793Z,13.99
2016-10-01T02:13:35.334Z,14
2016-10-01T02:14:15.871Z,14.04
2016-10-01T02:14:56.415Z,14.03
2016-10-01T02:15:36.941Z,13.99
2016-10-01T02:16:17.481Z,14.02
2016-10-01T02:16:58.017Z,13.99
2016-10-01T02:17:38.539Z,14
2016-10-01T02:18:19.086Z,14.03
2016-10-01T02:18:59.602Z,14.04
2016-10-01T02:19:40.131Z,14.02
2016-10-01T02:20:20.665Z,14.04
2016-10-01T02:21:01.191Z,14.09
2016-10-01T02:21:41.744Z,14.03
2016-10-01T02:22:22.262Z,14.07
2016-10-01T02:23:02.795Z,14.14
2016-10-01T02:23:43.305Z,14.04
2016-10-01T02:24:23.858Z,14.04
2016-10-01T02:25:04.384Z,14.02
2016-10-01T02:25:44.920Z,14.12
2016-10-01T02:26:25.467Z,14.06
2016-10-01T02:27:05.997Z,14.04
2016-10-01T02:27:46.542Z,14.06
2016-10-01T02:28:27.095Z,14.1
2016-10-01T02:29:07.614Z,14.03
2016-10-01T02:29:48.150Z,14.06
2016-10-01T02:30:28.662Z,14.07
2016-10-01T02:31:09.216Z,14.03
2016-10-01T02:31:49.746Z,14.04
2016-10-01T02:32:30.262Z,14.02
2016-10-01T02:33:10.807Z,14
2016-10-01T02:33:51.327Z,14
2016-10-01T02:34:31.883Z,13.96
2016-10-01T02:35:12.393Z,13.99
2016-10-01T02:35:52.931Z,13.99
2016-10-01T02:36:33.458Z,13.91
2016-10-01T02:37:13.984Z,13.87
2016-10-01T02:37:54.524Z,13.96
2016-10-01T02:38:35.069Z,13.96
2016-10-01T02:39:15.623Z,13.82
2016-10-01T02:39:56.174Z,13.87
2016-10-01T02:40:36.723Z,13.96
2016-10-01T02:41:17.283Z,13.81
2016-10-01T02:41:57.791Z,13.81
2016-10-01T02:42:38.315Z,13.88
2016-10-01T02:43:18.859Z,13.79
2016-10-01T02:43:59.412Z,13.85
2016-10-01T02:44:39.936Z,13.81
2016-10-01T02:45:20.469Z,13.85
2016-10-01T02:46:00.989Z,13.88
2016-10-01T02:46:41.516Z,13.84
2016-10-01T02:47:22.067Z,13.97
2016-10-01T02:48:02.574Z,13.91
2016-10-01T02:48:43.106Z,13.92
2016-10-01T02:49:23.657Z,13.95
2016-10-01T02:50:04.174Z,13.97
2016-10-01T02:50:44.706Z,13.96
2016-10-01T02:51:25.249Z,13.91
2016-10-01T02:52:05.787Z,13.87
2016-10-01T02:52:46.337Z,13.89
2016-10-01T02:53:26.862Z,13.91
2016-10-01T02:54:07.389Z,13.91
2016-10-01T02:54:47.929Z,13.91
2016-10-01T02:55:28.461Z,13.92
2016-10-01T02:56:09.004Z,13.89
2016-10-01T02:56:49.534Z,13.97
2016-10-01T02:57:30.082Z,13.95
2016-10-01T02:58:10.634Z,13.91
2016-10-01T02:58:51.168Z,13.91
2016-10-01T02:59:31.716Z,13.91
2016-10-01T03:00:12.252Z,13.96
2016-10-01T03:00:52.788Z,13.92
2016-10-01T03:01:33.318Z,13.89
2016-10-01T03:02:13.855Z,14.03
2016-10-01T03:02:54.385Z,14.03
2016-10-01T03:03:34.935Z,14
2016-10-01T03:04:15.491Z,13.96
2016-10-01T03:04:56.037Z,14.06
2016-10-01T03:05:36.583Z,14.02
2016-10-01T03:06:17.118Z,14
2016-10-01T03:06:57.672Z,13.99
2016-10-01T03:07:38.184Z,13.97
2016-10-01T03:08:18.729Z,14
2016-10-01T03:08:59.263Z,14.04
2016-10-01T03:09:39.801Z,14.02
2016-10-01T03:10:20.357Z,14
2016-10-01T03:11:00.873Z,14.02
2016-10-01T03:11:41.407Z,13.97
2016-10-01T03:12:21.941Z,14.02
2016-10-01T03:13:02.496Z,13.97
2016-10-01T03:13:43.024Z,13.95
2016-10-01T03:14:23.555Z,13.91
2016-10-01T03:15:04.088Z,13.91
2016-10-01T03:15:44.612Z,13.84
2016-10-01T03:16:25.150Z,13.88
2016-10-01T03:17:05.680Z,13.87
2016-10-01T03:17:46.211Z,13.91
2016-10-01T03:18:26.754Z,13.81
2016-10-01T03:19:07.306Z,13.82
2016-10-01T03:19:47.845Z,13.77
2016-10-01T03:20:28.355Z,13.78
2016-10-01T03:21:08.887Z,13.69
2016-10-01T03:21:49.428Z,13.69
2016-10-01T03:22:29.975Z,13.7
2016-10-01T03:23:10.513Z,13.66
2016-10-01T03:23:51.053Z,13.7
2016-10-01T03:24:31.606Z,13.73
2016-10-01T03:25:12.153Z,13.67
2016-10-01T03:25:52.693Z,13.75
2016-10-01T03:26:33.241Z,13.75
2016-10-01T03:27:13.783Z,13.75
2016-10-01T03:27:54.311Z,13.73
2016-10-01T03:28:34.851Z,13.69
2016-10-01T03:29:15.386Z,13.73
2016-10-01T03:29:55.916Z,13.73
2016-10-01T03:30:36.452Z,13.71
2016-10-01T03:31:16.973Z,13.77
2016-10-01T03:31:57.492Z,13.64
2016-10-01T03:32:38.021Z,13.71
2016-10-01T03:33:18.559Z,13.67
2016-10-01T03:33:59.081Z,13.77
2016-10-01T03:34:39.606Z,13.81
2016-10-01T03:35:20.134Z,13.67
2016-10-01T03:36:00.682Z,13.75
2016-10-01T03:36:41.213Z,13.82
2016-10-01T03:37:21.769Z,13.79
2016-10-01T03:38:02.325Z,13.81
2016-10-01T03:38:42.874Z,13.81
2016-10-01T03:39:23.408Z,13.84
2016-10-01T03:40:03.949Z,13.81
2016-10-01T03:40:44.482Z,13.82
2016-10-01T03:41:25.010Z,13.7
2016-10-01T03:42:05.544Z,13.78
2016-10-01T03:42:46.096Z,13.78
2016-10-01T03:43:26.625Z,13.81
2016-10-01T03:44:07.171Z,13.77
2016-10-01T03:44:47.702Z,13.7
2016-10-01T03:45:28.231Z,13.67
2016-10-01T03:46:08.761Z,13.69
2016-10-01T03:46:49.300Z,13.75
2016-10-01T03:47:29.852Z,13.73
2016-10-01T03:48:10.385Z,13.71
2016-10-01T03:48:50.930Z,13.71
2016-10-01T03:49:31.496Z,13.69
2016-10-01T03:50:12.038Z,13.7
2016-10-01T03:50:52.579Z,13.7
2016-10-01T03:51:33.130Z,13.63
2016-10-01T03:52:13.750Z,13.64
2016-10-01T03:52:54.213Z,13.57
2016-10-01T03:53:34.750Z,13.59
2016-10-01T03:54:15.290Z,13.54
2016-10-01T03:54:55.860Z,13.52
2016-10-01T03:55:36.380Z,13.48
2016-10-01T03:56:16.921Z,13.42
2016-10-01T03:56:57.453Z,13.39
2016-10-01T03:57:37.993Z,13.45
2016-10-01T03:58:18.538Z,13.32
2016-10-01T03:58:59.086Z,13.26
2016-10-01T03:59:39.621Z,13.28
2016-10-01T04:00:20.374Z,13.25
2016-10-01T04:01:01.017Z,13.23
2016-10-01T04:01:41.561Z,13.25
2016-10-01T04:02:22.097Z,13.23
2016-10-01T04:03:02.635Z,13.2
2016-10-01T04:03:43.174Z,13.17
2016-10-01T04:04:23.699Z,13.15
2016-10-01T04:05:04.236Z,13.17
2016-10-01T04:05:44.758Z,13.19
2016-10-01T04:06:25.289Z,13.15
2016-10-01T04:07:05.817Z,13.19
2016-10-01T04:07:46.357Z,13.14
2016-10-01T04:08:26.908Z,13.15
2016-10-01T04:09:07.451Z,13.17
2016-10-01T04:09:47.991Z,13.17
2016-10-01T04:10:28.521Z,13.19
2016-10-01T04:11:09.052Z,13.14
2016-10-01T04:11:49.595Z,13.2
2016-10-01T04:12:30.121Z,13.17
2016-10-01T04:13:10.663Z,13.14
2016-10-01T04:13:51.224Z,13.14
2016-10-01T04:14:31.767Z,13.22
2016-10-01T04:15:12.315Z,13.19
2016-10-01T04:15:52.856Z,13.14
2016-10-01T04:16:33.400Z,13.08
2016-10-01T04:17:13.941Z,13.08
2016-10-01T04:17:54.489Z,13.03
2016-10-01T04:18:35.017Z,13.05
2016-10-01T04:19:15.587Z,12.95
2016-10-01T04:19:56.135Z,13.03
2016-10-01T04:20:36.687Z,13.04
2016-10-01T04:21:17.227Z,13.03
2016-10-01T04:21:57.817Z,13.03
2016-10-01T04:22:38.362Z,13.01
2016-10-01T04:23:18.897Z,12.96
2016-10-01T04:23:59.434Z,13.04
2016-10-01T04:24:39.977Z,13.08
2016-10-01T04:25:20.538Z,13.03
2016-10-01T04:26:01.046Z,12.95
2016-10-01T04:26:41.588Z,13.04
2016-10-01T04:27:22.131Z,13.01
2016-10-01T04:28:02.679Z,13.01
2016-10-01T04:28:43.227Z,13.01
2016-10-01T04:29:23.760Z,13.04
2016-10-01T04:30:04.321Z,13.1
2016-10-01T04:30:44.854Z,13.03
2016-10-01T04:31:25.375Z,13.07
2016-10-01T04:32:05.906Z,13.08
2016-10-01T04:32:46.450Z,13.05
2016-10-01T04:33:26.992Z,13.11
2016-10-01T04:34:07.535Z,13.11
2016-10-01T04:34:48.078Z,13.12
2016-10-01T04:35:28.625Z,13.15
2016-10-01T04:36:09.170Z,13.1
2016-10-01T04:36:49.713Z,13.15
2016-10-01T04:37:30.252Z,13.14
2016-10-01T04:38:10.772Z,13.1
2016-10-01T04:38:51.331Z,13.15
2016-10-01T04:39:31.871Z,13.19
2016-10-01T04:40:12.390Z,13.15
2016-10-01T04:40:52.934Z,13.15
2016-10-01T04:41:33.480Z,13.19
2016-10-01T04:42:14.010Z,13.14
2016-10-01T04:42:54.559Z,13.15
2016-10-01T04:43:35.099Z,13.11
2016-10-01T04:44:15.647Z,13.12
2016-10-01T04:44:56.212Z,13.22
2016-10-01T04:45:36.727Z,13.2
2016-10-01T04:46:17.245Z,13.12
2016-10-01T04:46:57.784Z,13.19
2016-10-01T04:47:38.328Z,13.22
2016-10-01T04:48:18.859Z,13.2
2016-10-01T04:48:59.473Z,13.23
2016-10-01T04:49:39.982Z,13.26
2016-10-01T04:50:20.523Z,13.2
2016-10-01T04:51:01.065Z,13.23
2016-10-01T04:53:55.121Z,13.22
2016-10-01T04:54:38.462Z,13.25
2016-10-01T04:55:18.621Z,13.14
2016-10-01T04:55:59.140Z,13.14
2016-10-01T04:56:39.662Z,13.23
2016-10-01T04:57:20.156Z,13.17
2016-10-01T04:58:00.634Z,13.12
2016-10-01T04:58:41.149Z,13.2
2016-10-01T04:59:21.630Z,13.2
2016-10-01T05:00:02.171Z,13.22
2016-10-01T05:00:42.696Z,13.19
2016-10-01T05:01:23.207Z,13.22
2016-10-01T05:02:03.752Z,13.19
2016-10-01T05:02:44.243Z,13.2
2016-10-01T05:03:24.755Z,13.22
2016-10-01T05:04:05.283Z,13.22
2016-10-01T05:04:45.782Z,13.19
2016-10-01T05:05:26.299Z,13.25
2016-10-01T05:06:06.847Z,13.19
2016-10-01T05:06:47.364Z,13.15
2016-10-01T05:07:27.848Z,13.15
2016-10-01T05:08:08.354Z,13.19
2016-10-01T05:08:48.900Z,13.17
2016-10-01T05:09:29.395Z,13.2
2016-10-01T05:10:09.930Z,13.14
2016-10-01T05:10:50.461Z,13.22
2016-10-01T05:11:30.968Z,13.19
2016-10-01T05:12:11.506Z,13.19
2016-10-01T05:12:52.034Z,13.17
2016-10-01T05:13:32.541Z,13.23
2016-10-01T05:14:13.072Z,13.2
2016-10-01T05:14:53.583Z,13.2
2016-10-01T05:15:34.134Z,13.17
2016-10-01T05:16:14.647Z,13.23
2016-10-01T05:16:55.165Z,13.19
2016-10-01T05:17:35.665Z,13.17
2016-10-01T05:18:16.190Z,13.22
2016-10-01T05:18:56.705Z,13.25
2016-10-01T05:19:37.218Z,13.19
2016-10-01T05:20:17.758Z,13.17
2016-10-01T05:20:58.242Z,13.12
2016-10-01T05:21:38.751Z,13.22
2016-10-01T05:22:19.256Z,13.14
2016-10-01T05:22:59.785Z,13.11
2016-10-01T05:23:40.313Z,13.22
2016-10-01T05:24:20.804Z,13.15
2016-10-01T05:25:01.298Z,13.11
2016-10-01T05:25:41.789Z,13.2
2016-10-01T05:26:22.312Z,13.15
2016-10-01T05:27:02.811Z,13.12
2016-10-01T05:27:43.313Z,13.11
2016-10-01T05:28:23.863Z,13.19
2016-10-01T05:29:04.348Z,13.14
2016-10-01T05:29:44.860Z,13.2
2016-10-01T05:30:25.337Z,13.23
2016-10-01T05:31:05.840Z,13.12
2016-10-01T05:31:46.340Z,13.17
2016-10-01T05:32:26.841Z,13.17
2016-10-01T05:34:41.752Z,13.1
2016-10-01T05:35:21.545Z,13.08
2016-10-01T05:36:02.010Z,13.11
2016-10-01T05:36:42.502Z,13.12
2016-10-01T05:37:23.029Z,13.05
2016-10-01T05:38:03.498Z,13.05
2016-10-01T05:38:43.991Z,13.05
2016-10-01T05:39:24.477Z,13.12
2016-10-01T05:40:05.000Z,13.07
2016-10-01T05:40:45.461Z,13.1
2016-10-01T05:41:25.983Z,13.15
2016-10-01T05:42:06.469Z,13.11
2016-10-01T05:42:46.937Z,13.14
2016-10-01T05:43:27.447Z,13.11
2016-10-01T05:44:07.939Z,13.17
2016-10-01T05:44:48.426Z,13.14
2016-10-01T05:45:28.922Z,13.14
2016-10-01T05:46:09.461Z,13.15
2016-10-01T05:46:49.963Z,13.17
2016-10-01T05:47:30.455Z,13.15
2016-10-01T05:48:10.941Z,13.14
2016-10-01T05:48:51.480Z,13.15
2016-10-01T05:49:32.005Z,13.08
2016-10-01T05:50:12.492Z,13.12
2016-10-01T05:50:53.175Z,13.15
2016-10-01T05:51:33.606Z,13.1
2016-10-01T05:52:14.090Z,13.05
2016-10-01T05:52:54.618Z,13.15
2016-10-01T05:53:35.087Z,13.12
2016-10-01T05:54:15.605Z,13.11
2016-10-01T05:54:56.156Z,13.07
2016-10-01T05:55:36.663Z,13.04
2016-10-01T05:56:17.145Z,13.03
2016-10-01T05:56:57.638Z,13.07
2016-10-01T05:57:38.162Z,13.04
2016-10-01T05:58:18.633Z,12.96
2016-10-01T05:58:59.138Z,12.97
2016-10-01T05:59:39.624Z,12.96
2016-10-01T06:00:20.151Z,12.93
2016-10-01T06:01:00.715Z,12.93
2016-10-01T06:01:41.211Z,12.9
2016-10-01T06:02:21.760Z,12.87
2016-10-01T06:03:02.239Z,12.87
2016-10-01T06:03:42.745Z,12.85
2016-10-01T06:04:23.238Z,12.83
2016-10-01T06:05:03.736Z,12.86
2016-10-01T06:05:44.255Z,12.82
2016-10-01T06:06:24.787Z,12.86
2016-10-01T06:07:05.311Z,12.89
2016-10-01T06:07:45.832Z,12.95
2016-10-01T06:08:26.383Z,12.87
2016-10-01T06:09:06.945Z,12.92
2016-10-01T06:09:47.503Z,12.93
2016-10-01T06:10:27.975Z,12.97
2016-10-01T06:11:08.499Z,12.97
2016-10-01T06:11:49.061Z,12.95
2016-10-01T06:12:29.653Z,12.9
2016-10-01T06:13:10.186Z,12.93
2016-10-01T06:13:50.712Z,12.9
2016-10-01T06:14:31.243Z,12.95
2016-10-01T06:15:12.568Z,12.96
2016-10-01T06:15:53.016Z,12.96
2016-10-01T06:16:33.548Z,12.97
2016-10-01T06:17:14.106Z,12.96
2016-10-01T06:17:54.698Z,13
2016-10-01T06:18:35.560Z,12.92
2016-10-01T06:19:16.052Z,13
2016-10-01T06:19:56.777Z,12.93
2016-10-01T06:20:37.360Z,12.96
2016-10-01T06:21:17.963Z,13.04
2016-10-01T06:21:58.452Z,13.04
2016-10-01T06:22:38.978Z,13.08
2016-10-01T06:23:19.686Z,13.07
2016-10-01T06:24:00.143Z,13.01
2016-10-01T06:24:40.738Z,13.03
2016-10-01T06:25:21.301Z,12.97
2016-10-01T06:26:02.012Z,13.08
2016-10-01T06:26:42.491Z,13.08
2016-10-01T06:27:23.516Z,13.04
2016-10-01T06:28:04.398Z,13.07
2016-10-01T06:28:46.564Z,12.97
2016-10-01T06:29:27.082Z,13.01
2016-10-01T06:30:07.492Z,13.04
2016-10-01T06:30:48.038Z,13.05
2016-10-01T06:31:28.649Z,12.97
2016-10-01T06:32:09.149Z,13.1
2016-10-01T06:32:49.680Z,13.1
2016-10-01T06:33:30.348Z,13.07
2016-10-01T06:34:10.977Z,13.05
2016-10-01T06:34:51.497Z,13.1
2016-10-01T06:35:32.028Z,13.1
2016-10-01T06:36:12.562Z,13.08
2016-10-01T06:36:53.101Z,13.15
2016-10-01T06:37:33.626Z,13.14
2016-10-01T06:38:14.186Z,13.1
2016-10-01T06:38:54.714Z,13.19
2016-10-01T06:44:21.966Z,13.14
2016-10-01T06:45:03.048Z,13.19
2016-10-01T06:45:44.059Z,13.19
2016-10-01T06:46:24.951Z,13.14
2016-10-01T06:47:07.843Z,13.17
2016-10-01T06:47:48.686Z,13.15
2016-10-01T06:48:30.073Z,13.17
2016-10-01T06:49:11.155Z,13.22
2016-10-01T06:51:59.880Z,13.26
2016-10-01T06:52:40.865Z,13.28
2016-10-01T06:53:21.721Z,13.23
2016-10-01T06:54:02.659Z,13.22
2016-10-01T06:54:43.376Z,13.22
2016-10-01T06:55:23.889Z,13.19
2016-10-01T06:56:04.422Z,13.19
2016-10-01T06:56:45.057Z,13.14
2016-10-01T06:57:25.560Z,13.22
2016-10-01T06:58:06.062Z,13.22
2016-10-01T06:58:46.585Z,13.23
2016-10-01T06:59:27.307Z,13.23
2016-10-01T07:00:08.010Z,13.2
2016-10-01T07:00:48.603Z,13.25
2016-10-01T07:01:29.290Z,13.25
2016-10-01T07:02:10.026Z,13.28
2016-10-01T07:02:50.966Z,13.25
2016-10-01T07:03:31.520Z,13.23
2016-10-01T07:04:12.052Z,13.22
2016-10-01T07:04:52.576Z,13.25
2016-10-01T07:05:33.096Z,13.22
2016-10-01T07:06:13.595Z,13.2
2016-10-01T07:06:54.136Z,13.23
2016-10-01T07:07:34.616Z,13.25
2016-10-01T07:08:15.123Z,13.22
2016-10-01T07:08:55.631Z,13.25
2016-10-01T07:09:36.140Z,13.25
2016-10-01T07:10:16.698Z,13.26
2016-10-01T07:10:57.220Z,13.23
2016-10-01T07:11:37.713Z,13.28
2016-10-01T07:12:18.217Z,13.28
2016-10-01T07:12:58.719Z,13.22
2016-10-01T07:13:39.260Z,13.23
2016-10-01T07:14:19.762Z,13.26
2016-10-01T07:15:00.331Z,13.23
2016-10-01T07:15:40.760Z,13.28
2016-10-01T07:16:21.275Z,13.28
2016-10-01T07:17:01.785Z,13.25
2016-10-01T07:17:42.346Z,13.28
2016-10-01T07:18:22.838Z,13.23
2016-10-01T07:19:03.410Z,13.23
2016-10-01T07:19:43.925Z,13.23
2016-10-01T07:20:24.451Z,13.2
2016-10-01T07:21:04.986Z,13.15
2016-10-01T07:21:45.528Z,13.19
2016-10-01T07:22:26.086Z,13.15
2016-10-01T07:23:06.566Z,13.2
2016-10-01T07:23:47.083Z,13.07
2016-10-01T07:24:27.580Z,13.2
2016-10-01T07:25:08.168Z,13.17
2016-10-01T07:25:48.648Z,13.2
2016-10-01T07:26:29.207Z,13.26
2016-10-01T07:27:09.746Z,13.23
2016-10-01T07:27:50.262Z,13.19
2016-10-01T07:28:30.752Z,13.26
2016-10-01T07:29:11.280Z,13.2
2016-10-01T07:29:51.789Z,13.15
2016-10-01T07:30:32.284Z,13.15
2016-10-01T07:31:12.833Z,13.15
2016-10-01T07:31:53.334Z,13.14
2016-10-01T07:32:33.889Z,13.12
2016-10-01T07:33:14.409Z,13.1
2016-10-01T07:33:54.938Z,13.12
2016-10-01T07:34:35.420Z,13.07
2016-10-01T07:35:15.970Z,12.96
2016-10-01T07:35:56.445Z,13.12
2016-10-01T07:36:36.933Z,13.11
2016-10-01T07:37:17.481Z,13.04
2016-10-01T07:37:57.955Z,13.19
2016-10-01T07:38:38.498Z,13.12
2016-10-01T07:39:19.051Z,13.15
2016-10-01T07:39:59.549Z,13.26
2016-10-01T07:40:40.090Z,13.25
2016-10-01T07:41:20.599Z,13.25
2016-10-01T07:42:01.142Z,13.26
2016-10-01T07:42:41.689Z,13.2
2016-10-01T07:43:23.584Z,13.2
2016-10-01T07:44:04.082Z,13.23
2016-10-01T07:44:44.606Z,13.26
2016-10-01T07:45:25.217Z,13.25
2016-10-01T07:46:05.644Z,13.25
2016-10-01T07:46:46.167Z,13.2
2016-10-01T07:47:27.741Z,13.26
2016-10-01T07:48:08.475Z,13.22
2016-10-01T07:48:48.894Z,13.28
2016-10-01T07:49:29.374Z,13.25
2016-10-01T07:50:09.920Z,13.26
2016-10-01T07:50:50.443Z,13.28
2016-10-01T07:51:31.152Z,13.17
2016-10-01T07:52:12.299Z,13.17
2016-10-01T07:52:52.656Z,13.15
2016-10-01T07:53:33.195Z,13.25
2016-10-01T07:54:13.740Z,13.26
2016-10-01T07:54:54.332Z,13.19
2016-10-01T07:55:34.829Z,13.22
2016-10-01T07:56:15.519Z,13.26
2016-10-01T07:56:56.039Z,13.26
2016-10-01T07:57:36.563Z,13.25
2016-10-01T07:58:17.054Z,13.25
2016-10-01T07:58:57.566Z,13.33
2016-10-01T07:59:38.193Z,13.25
2016-10-01T08:00:19.948Z,13.26
2016-10-01T08:01:00.439Z,13.33
2016-10-01T08:01:40.986Z,13.28
2016-10-01T08:02:21.510Z,13.28
2016-10-01T08:03:02.061Z,13.28
2016-10-01T08:03:42.643Z,13.3
2016-10-01T08:04:23.145Z,13.44
2016-10-01T08:05:03.654Z,13.39
2016-10-01T08:05:44.206Z,13.39
2016-10-01T08:06:24.685Z,13.41
2016-10-01T08:07:05.211Z,13.44
2016-10-01T08:07:45.744Z,13.57
2016-10-01T08:08:26.275Z,13.48
2016-10-01T08:09:06.799Z,13.55
2016-10-01T08:09:47.317Z,13.6
2016-10-01T08:10:27.956Z,13.59
2016-10-01T08:11:08.489Z,13.57
2016-10-01T08:11:49.014Z,13.62
2016-10-01T08:12:29.543Z,13.63
2016-10-01T08:13:10.016Z,13.66
2016-10-01T08:13:50.525Z,13.66
2016-10-01T08:14:31.064Z,13.71
2016-10-01T08:15:11.640Z,13.77
2016-10-01T08:15:52.201Z,13.67
2016-10-01T08:16:32.812Z,13.75
2016-10-01T08:17:13.344Z,13.7
2016-10-01T08:17:53.851Z,13.7
2016-10-01T08:18:34.356Z,13.67
2016-10-01T08:19:14.929Z,13.69
2016-10-01T08:19:55.444Z,13.66
2016-10-01T08:20:36.013Z,13.67
2016-10-01T08:21:16.546Z,13.7
2016-10-01T08:21:57.062Z,13.73
2016-10-01T08:22:37.597Z,13.75
2016-10-01T08:23:18.248Z,13.73
2016-10-01T08:23:58.747Z,13.66
2016-10-01T08:24:39.463Z,13.64
2016-10-01T08:25:20.042Z,13.55
2016-10-01T08:26:00.582Z,13.6
2016-10-01T08:26:41.121Z,13.57
2016-10-01T08:27:21.640Z,13.57
2016-10-01T08:28:02.146Z,13.57
2016-10-01T08:28:42.692Z,13.52
2016-10-01T08:30:42.129Z,13.54
2016-10-01T08:31:22.984Z,13.59
2016-10-01T08:32:03.488Z,13.49
2016-10-01T08:32:44.006Z,13.54
2016-10-01T08:33:24.524Z,13.62
2016-10-01T08:34:05.092Z,13.66
2016-10-01T08:34:45.597Z,13.66
2016-10-01T08:35:26.102Z,13.66
2016-10-01T08:36:06.645Z,13.63
2016-10-01T08:36:47.158Z,13.62
2016-10-01T08:37:27.690Z,13.64
2016-10-01T08:38:08.230Z,13.57
2016-10-01T08:38:48.721Z,13.64
2016-10-01T08:39:29.244Z,13.57
2016-10-01T08:40:09.784Z,13.49
2016-10-01T08:40:50.301Z,13.52
2016-10-01T08:41:30.842Z,13.52
2016-10-01T08:42:11.386Z,13.46
2016-10-01T08:42:51.917Z,13.55
2016-10-01T08:43:32.435Z,13.41
2016-10-01T08:44:12.968Z,13.55
2016-10-01T08:44:53.491Z,13.46
2016-10-01T08:45:33.996Z,13.48
2016-10-01T08:46:14.528Z,13.42
2016-10-01T08:46:55.072Z,13.39
2016-10-01T08:47:35.685Z,13.44
2016-10-01T08:48:16.158Z,13.39
2016-10-01T08:48:56.693Z,13.42
2016-10-01T08:49:37.209Z,13.44
2016-10-01T08:50:17.756Z,13.48
2016-10-01T08:50:58.264Z,13.46
2016-10-01T08:51:38.804Z,13.55
2016-10-01T08:52:19.413Z,13.55
2016-10-01T08:52:59.933Z,13.57
2016-10-01T08:53:40.455Z,13.55
2016-10-01T08:54:20.999Z,13.55
2016-10-01T08:55:01.490Z,13.57
2016-10-01T08:55:42.052Z,13.57
2016-10-01T08:56:22.577Z,13.55
2016-10-01T08:57:03.143Z,13.55